• Join FlightAware (Why Join?)
  • Login
  • US Flag 
01:21AM EDT


 

Airport Tracker/Info


-or-


 

Live Flight TrackerFlight Track Log ✈ N220RF ✈ 08-Sep-2013 ✈ KMRH - KCRG

Flight Track Log - Related Links

Times and Time Zones

All times are in EDT time to prevent confusion due to time zone crossing. See the N220RF flight status page for this flight to view local times or setup timezone preferences in your user account.

Time Position Orientation Groundspeed Altitude Reporting Facility
EDT Latitude Longitude Course Direction KTS MPH feet Rate Location/Type
02:09PM 34.7034 -76.6928 221° Southwest  Level FlightAware Approximate
02:10PM 34.6731 -76.7253 221° Southwest  Level FlightAware Approximate
02:11PM 34.6468 -76.7532 219° Southwest  Level FlightAware Approximate
02:12PM 34.6156 -76.7844 219° Southwest  Level FlightAware Approximate
02:13PM 34.5844 -76.8156 219° Southwest  Level FlightAware Approximate
02:14PM 34.5532 -76.8468 219° Southwest  Level FlightAware Approximate
02:15PM 34.5304 -76.8868 225° Southwest  Level FlightAware Approximate
02:16PM 34.5018 -76.9214 225° Southwest  Level FlightAware Approximate
02:17PM 34.4731 -76.9559 225° Southwest  Level FlightAware Approximate
02:18PM 34.4444 -76.9903 225° Southwest  Level FlightAware Approximate
02:19PM 34.4156 -77.0248 225° Southwest  Level FlightAware Approximate
02:20PM 34.3869 -77.0592 225° Southwest  Level FlightAware Approximate
02:21PM 34.3582 -77.0936 225° Southwest  Level FlightAware Approximate
02:22PM 34.3295 -77.1280 225° Southwest  Level FlightAware Approximate
02:23PM 34.3007 -77.1624 225° Southwest  Level FlightAware Approximate
02:24PM 34.2719 -77.1967 225° Southwest  Level FlightAware Approximate
02:25PM 34.2432 -77.2310 225° Southwest  Level FlightAware Approximate
02:25PM 34.1264 -77.8131 225° Southwest 147 169 6,300  Level Jacksonville Center
02:26PM 34.2144 -77.2653 225° Southwest  Level FlightAware Approximate
02:26PM 34.0939 -77.8325 206° Southwest 147 169 6,100  Level Jacksonville Center
02:27PM 34.1856 -77.2996 225° Southwest  Level FlightAware Approximate
02:27PM 34.0656 -77.8592 218° Southwest 137 158 5,800  Level Jacksonville Center
02:28PM 34.1568 -77.3338 225° Southwest  Level FlightAware Approximate
02:28PM 34.0400 -77.8956 230° Southwest 139 160 5,200  Level Jacksonville Center
02:29PM 34.1280 -77.3681 225° Southwest  Level FlightAware Approximate
02:29PM 34.0244 -77.9242 237° Southwest 128 147 4,500  Level Jacksonville Center
02:30PM 34.0008 -77.9606 232° Southwest 128 147 6,500 960 Climbing Jacksonville Center
02:31PM 34.0044 -78.0003 276° West 128 147 6,500  Level Jacksonville Center
02:32PM 34.0025 -78.0056 246° West 128 147 6,500  Level Jacksonville Center
02:33PM 33.9939 -78.0486 256° West 128 147 6,500  Level Jacksonville Center
02:34PM 33.9850 -78.0942 257° West 128 147 6,500  Level Jacksonville Center
02:35PM 33.9781 -78.1294 257° West 128 147 6,500  Level Jacksonville Center
02:37PM 33.9466 -78.2139 246° West  Level FlightAware Approximate
02:44PM 33.8392 -78.5306 250° West  Level FlightAware Approximate
02:45PM 33.8148 -78.5668 217° Southwest  Level FlightAware Approximate
02:46PM 33.7825 -78.5960 217° Southwest  Level FlightAware Approximate
02:47PM 33.7501 -78.6251 217° Southwest  Level FlightAware Approximate
02:48PM 33.7178 -78.6543 217° Southwest  Level FlightAware Approximate
02:49PM 33.6855 -78.6834 217° Southwest  Level FlightAware Approximate
02:50PM 33.6532 -78.7125 217° Southwest  Level FlightAware Approximate
02:51PM 33.6208 -78.7416 217° Southwest  Level FlightAware Approximate
02:52PM 33.5885 -78.7706 217° Southwest  Level FlightAware Approximate
02:53PM 33.5562 -78.7997 217° Southwest  Level FlightAware Approximate
02:54PM 33.5238 -78.8287 217° Southwest  Level FlightAware Approximate
02:55PM 33.4914 -78.8575 216° Southwest  Level FlightAware Approximate
02:56PM 33.4587 -78.8859 216° Southwest  Level FlightAware Approximate
02:57PM 33.4259 -78.9143 216° Southwest  Level FlightAware Approximate
02:58PM 33.3932 -78.9427 216° Southwest  Level FlightAware Approximate
02:59PM 33.3605 -78.9711 216° Southwest  Level FlightAware Approximate
03:00PM 33.3278 -78.9994 216° Southwest  Level FlightAware Approximate
03:01PM 33.2951 -79.0277 216° Southwest  Level FlightAware Approximate
03:02PM 33.2623 -79.0560 216° Southwest  Level FlightAware Approximate
03:03PM 33.2298 -79.0847 217° Southwest  Level FlightAware Approximate
03:04PM 33.1974 -79.1135 217° Southwest  Level FlightAware Approximate
03:05PM 33.1650 -79.1423 217° Southwest  Level FlightAware Approximate
03:06PM 33.1326 -79.1711 217° Southwest  Level FlightAware Approximate
03:07PM 33.1002 -79.1999 217° Southwest  Level FlightAware Approximate
03:08PM 33.0674 -79.2281 216° Southwest  Level FlightAware Approximate
03:09PM 33.0347 -79.2563 216° Southwest  Level FlightAware Approximate
03:10PM 33.0019 -79.2845 216° Southwest  Level FlightAware Approximate
03:11PM 32.9692 -79.3127 216° Southwest  Level FlightAware Approximate
03:12PM 32.9364 -79.3408 216° Southwest  Level FlightAware Approximate
03:13PM 32.9036 -79.3689 216° Southwest  Level FlightAware Approximate
03:14PM 32.8709 -79.3971 216° Southwest  Level FlightAware Approximate
03:15PM 32.8381 -79.4251 216° Southwest  Level FlightAware Approximate
03:16PM 32.8053 -79.4532 216° Southwest  Level FlightAware Approximate
03:17PM 32.7725 -79.4813 216° Southwest  Level FlightAware Approximate
03:18PM 32.7397 -79.5093 216° Southwest  Level FlightAware Approximate
03:19PM 32.7069 -79.5373 216° Southwest  Level FlightAware Approximate
03:20PM 32.6741 -79.5653 216° Southwest  Level FlightAware Approximate
03:21PM 32.6413 -79.5932 216° Southwest  Level FlightAware Approximate
03:22PM 32.6084 -79.6212 216° Southwest  Level FlightAware Approximate
03:23PM 32.5756 -79.6492 216° Southwest  Level FlightAware Approximate
03:24PM 32.5428 -79.6771 216° Southwest  Level FlightAware Approximate
03:25PM 32.5100 -79.7050 216° Southwest  Level FlightAware Approximate
03:26PM 32.4772 -79.7329 216° Southwest  Level FlightAware Approximate
03:27PM 32.4443 -79.7608 216° Southwest  Level FlightAware Approximate
03:28PM 32.4115 -79.7887 216° Southwest  Level FlightAware Approximate
03:29PM 32.3786 -79.8165 216° Southwest  Level FlightAware Approximate
03:30PM 32.3458 -79.8444 216° Southwest  Level FlightAware Approximate
03:31PM 32.3129 -79.8721 216° Southwest  Level FlightAware Approximate
03:32PM 32.2800 -79.8999 216° Southwest  Level FlightAware Approximate
03:33PM 32.2472 -79.9277 216° Southwest  Level FlightAware Approximate
03:34PM 32.2143 -79.9554 216° Southwest  Level FlightAware Approximate
03:35PM 32.1814 -79.9831 216° Southwest  Level FlightAware Approximate
03:36PM 32.1485 -80.0108 215° Southwest  Level FlightAware Approximate
03:37PM 32.1156 -80.0385 215° Southwest  Level FlightAware Approximate
03:38PM 32.0827 -80.0662 215° Southwest  Level FlightAware Approximate
03:39PM 32.0498 -80.0938 215° Southwest  Level FlightAware Approximate
03:40PM 32.0169 -80.1214 215° Southwest  Level FlightAware Approximate
03:41PM 31.9840 -80.1490 215° Southwest  Level FlightAware Approximate
03:42PM 31.9510 -80.1766 215° Southwest  Level FlightAware Approximate
03:43PM 31.9181 -80.2041 215° Southwest  Level FlightAware Approximate
03:44PM 31.8852 -80.2317 215° Southwest  Level FlightAware Approximate
03:45PM 31.8522 -80.2592 215° Southwest  Level FlightAware Approximate
03:46PM 31.8193 -80.2867 215° Southwest  Level FlightAware Approximate
03:47PM 31.7863 -80.3142 215° Southwest  Level FlightAware Approximate
03:48PM 31.7529 -80.3409 214° Southwest  Level FlightAware Approximate
03:49PM 31.7195 -80.3674 214° Southwest  Level FlightAware Approximate
03:50PM 31.6860 -80.3940 214° Southwest  Level FlightAware Approximate
03:51PM 31.6525 -80.4206 214° Southwest  Level FlightAware Approximate
03:52PM 31.6191 -80.4471 214° Southwest  Level FlightAware Approximate
03:53PM 31.5856 -80.4736 214° Southwest  Level FlightAware Approximate
03:54PM 31.5521 -80.5002 214° Southwest  Level FlightAware Approximate
03:55PM 31.5186 -80.5266 214° Southwest  Level FlightAware Approximate
03:56PM 31.4851 -80.5531 214° Southwest  Level FlightAware Approximate
03:57PM 31.4516 -80.5795 214° Southwest  Level FlightAware Approximate
03:58PM 31.4181 -80.6060 214° Southwest  Level FlightAware Approximate
03:59PM 31.3846 -80.6324 214° Southwest  Level FlightAware Approximate
04:00PM 31.3521 -80.6606 217° Southwest  Level FlightAware Approximate
04:01PM 31.3197 -80.6889 217° Southwest  Level FlightAware Approximate
04:02PM 31.2874 -80.7171 217° Southwest  Level FlightAware Approximate
04:03PM 31.2550 -80.7453 217° Southwest  Level FlightAware Approximate
04:04PM 31.2226 -80.7736 217° Southwest  Level FlightAware Approximate
04:05PM 31.1902 -80.8017 217° Southwest  Level FlightAware Approximate
04:06PM 31.1577 -80.8299 217° Southwest  Level FlightAware Approximate
04:07PM 31.1253 -80.8581 217° Southwest  Level FlightAware Approximate
04:08PM 31.0929 -80.8862 217° Southwest  Level FlightAware Approximate
04:09PM 31.0605 -80.9143 217° Southwest  Level FlightAware Approximate
04:10PM 31.0280 -80.9424 217° Southwest  Level FlightAware Approximate
04:11PM 30.9955 -80.9703 214° Southwest  Level FlightAware Approximate
04:12PM 30.9621 -80.9967 214° Southwest  Level FlightAware Approximate
04:13PM 30.9286 -81.0232 214° Southwest  Level FlightAware Approximate
04:14PM 30.8952 -81.0496 214° Southwest  Level FlightAware Approximate
04:15PM 30.8618 -81.0760 214° Southwest  Level FlightAware Approximate
04:16PM 30.8284 -81.1024 214° Southwest  Level FlightAware Approximate
04:17PM 30.7949 -81.1288 214° Southwest  Level FlightAware Approximate
04:18PM 30.7615 -81.1552 214° Southwest  Level FlightAware Approximate
04:19PM 30.7280 -81.1815 214° Southwest  Level FlightAware Approximate
04:20PM 30.6946 -81.2078 214° Southwest  Level FlightAware Approximate
04:21PM 30.6612 -81.2344 215° Southwest  Level FlightAware Approximate
04:22PM 30.6280 -81.2610 215° Southwest  Level FlightAware Approximate
04:23PM 30.5948 -81.2877 216° Southwest  Level FlightAware Approximate
04:24PM 30.5620 -81.3151 216° Southwest  Level FlightAware Approximate
04:25PM 30.5291 -81.3424 216° Southwest  Level FlightAware Approximate
04:26PM 30.4963 -81.3697 215° Southwest  Level FlightAware Approximate
04:27PM 30.4630 -81.3963 215° Southwest  Level FlightAware Approximate
04:28PM 30.4298 -81.4229 215° Southwest  Level FlightAware Approximate
04:29PM 30.3965 -81.4495 215° Southwest  Level FlightAware Approximate
04:30PM 30.3633 -81.4761 215° Southwest  Level FlightAware Approximate
04:31PM 30.3333 -81.5000 215° Southwest  Level FlightAware Approximate
04:32PM 30.3363 -81.5144 215° Southwest  Level Estimated
04:33PM 30.3363 -81.5144 215° Southwest  Level Estimated
04:34PM 30.3363 -81.5144 215° Southwest  Level Estimated
04:35PM 30.3363 -81.5144 215° Southwest  Level Estimated
04:36PM 30.3363 -81.5144 215° Southwest  Level Estimated
04:37PM 30.3363 -81.5144 215° Southwest  Level Estimated
04:38PM 30.3363 -81.5144 215° Southwest  Level Estimated
04:39PM 30.3363 -81.5144 215° Southwest  Level Estimated
04:40PM 30.3363 -81.5144 215° Southwest  Level Estimated
04:41PM 30.3363 -81.5144 215° Southwest  Level Estimated
04:42PM 30.3363 -81.5144 215° Southwest  Level Estimated
04:43PM 30.3363 -81.5144 215° Southwest  Level Estimated
04:44PM 30.3363 -81.5144 215° Southwest  Level Estimated
04:45PM 30.3363 -81.5144 215° Southwest  Level Estimated
04:46PM 30.3363 -81.5144 215° Southwest  Level Estimated
04:47PM 30.3363 -81.5144 215° Southwest  Level Estimated
04:48PM 30.3363 -81.5144 215° Southwest  Level Estimated
04:49PM 30.3363 -81.5144 215° Southwest  Level Estimated
04:50PM 30.3363 -81.5144 215° Southwest  Level Estimated
04:51PM 30.3363 -81.5144 215° Southwest  Level Estimated
04:52PM 30.3363 -81.5144 215° Southwest  Level Estimated
04:53PM 30.3363 -81.5144 215° Southwest  Level Estimated
04:54PM 30.3363 -81.5144 215° Southwest  Level Estimated
04:55PM 30.3363 -81.5144 215° Southwest  Level Estimated
04:56PM 30.3363 -81.5144 215° Southwest  Level Estimated